Lexington, MA (02420)

8:21 AM EST on January 26, 2015 (GMT -0500)
Mt. Ephraim | Change Station
CLOSE
Current Station
Personal Weather Station
Location: Lexington, MA
Elevation: 203 ft
Nearby Weather Stations
Active Advisory: Blizzard Warning

Elev 203 ft 42.43 °N, 71.19 °W | Updated 2 seconds ago

Partly Cloudy
Partly Cloudy
10.1 °F
Feels Like 10 °F
N
1.0
Wind Variable Wind from NNW
Gusts 2.0 mph

Today
High -- | Low -- °F
--% Chance of Precip.
Yesterday
High -- | Low -- °F
Precip. -- in
7:04 AM 4:50 PM
Waxing Crescent, 43% visible
Pressure 30.20 in
Visibility 10.0 miles
Clouds Overcast 11000 ft
Windchill 10 °F
Dew Point 0 °F
Humidity 64%
Rainfall 0.00 in
Snow Depth Not available.
UV 0.0 out of 12
Pollen .10 out of 12
Air Quality Not available.
Flu Activity Not available.
METAR KBED 261256Z 34006KT 10SM OVC110 M13/M19 A3015 RMK AO2 SLP227 T11331194

More Conditions Fewer Conditions

Pressure 30.20 in
Visibility 10.0 miles
Clouds Overcast 11000 ft
Windchill 10 °F
Dew Point 0 °F
Humidity 64%
Rainfall 0.00 in
Snow Depth Not available.
UV 0.0 out of 12
Pollen .10 out of 12
Air Quality Not available.
Flu Activity Not available.
METAR KBED 261256Z 34006KT 10SM OVC110 M13/M19 A3015 RMK AO2 SLP227 T11331194

More Conditions Fewer Conditions

10-Day Weather Forecast

Almanac

Astronomy

Jan. 26, 2015 Rise Set
Actual Time
Civil Twilight
Nautical Twilight
Astronomical Twilight
Moon
Length of Visible Light
Length of Day
Tomorrow will be .
, % of the Moon is Illuminated

Today's Extremes

State Highs State Lows

Community

WunderPhotos

Upload Photos

1,790,194 photos uploaded!

WunderBlogs® & News

Nearby

Air Quality

  Air Quality AQ Index Pollutant
Not available.

Snow Depth

Station Depth Elevation

Earthquake Activity

City Distance Mag. Time & Date
Minimum magnitude displayed is 2.5.

Coastal Water Temperatures

Place Temperature

Nearby Weather Stations